Comunidad San Martin, Puerto Rico
Current Conditions -  °F | °C
As of 9:56 PM on Wednesday 22 Oct 2014 (Local Time) from TJSJ Reporting Station
Few Clouds Few Clouds  
Wind Chill: 82°   Ceiling: Unl
Heat Index: 87°   Visibility: 10mi
Dew Point: 73°   Wind: 0mph
Humidity: 74%   Direction: NA
Pressure: 29.97"   Gusts: NA
Location:  17.9849°N, 66.1175°W
Report Text: TJSJ 230156Z 00000KT 10SM FEW020 28/23 A2997 RMK AO2 SLP146 T02780228
Loading
Personal Weather Stations






























Interactive Weather Map
Tropical Storm Tracking
New forecast layout! Learn more

10-Day Weather Forecast

Advertisements
Track Severe Weather on mobile